Charlbury, United Kingdom
Current Conditions -  °F | °C
As of 10:20 AM on Friday 24 Oct 2014 (Local Time) from EGTK Reporting Station
Scattered Clouds Scattered Clouds  
Wind Chill: 59°   Ceiling: Unl
Heat Index: 59°   Visibility: 6mi
Dew Point: 57°   Wind: 6mph
Humidity: 94%   Direction: 200°SSW
Pressure: 29.94"   Gusts: NA
Location:  51.87°N, 1.48°W
Report Text: EGTK 240920Z 20005KT 9999 FEW010 SCT021 15/14 Q1014
Loading
Personal Weather Stations






























Interactive Weather Map
Tropical Storm Tracking
New forecast layout! Learn more

10-Day Weather Forecast

Advertisements
Track Severe Weather on mobile